Terminal Aerodrome Forecast
Issued by NWS Wichita, KS

Home | Current Version | Previous Version | Graphics & Text | Print | Product List | Glossary On
Versions: 1 2 3 4 5 6 7 8 9 10 11 12 13 14 15 16 17 18 19 20 21 22 23
772
FTUS43 KICT 191441 AAB
TAFICT
TAF AMD
KICT 191441Z 1915/2012 08020G27KT P6SM SCT080 OVC180
     FM191800 09017KT P6SM SCT050 OVC130
     FM192200 08013KT P6SM OVC050
     FM200000 10009KT P6SM VCSH OVC035
     FM200300 08009KT 3SM RA OVC018=

USA.gov is the U.S. government's official web portal to all federal, state and local government web resources and services.